RYR85YB EGBB-LERS
Flight info
| Callsign | RYR85YB |
|---|---|
| Flight time | 1h 54m |
| Altitude | 37000 |
| Route | ADMEX Y321 CPT UN859 SOPIL DCT BALAN DCT EVPOK DCT NARAK DCT GAI DCT LOMRA DCT ROCAN DCT PUMAL N31 BERGA |
| Aircraft | B38M/M-SDE1FGHILORVWXY/HB1 |
Departure
| Time | 2026-05-04 09:39 |
|---|---|
| Airport | Birmingham Airport (EGBB) |
Arrival
| Time | 2026-05-04 11:33 |
|---|---|
| Airport | Reus Airport (LERS) |
| Time | Latitude | Longitude | Altitude | Speed | Heading |
|---|---|---|---|---|---|
| 2026-05-04 09:05 | 52.45407 | -1.73501 | 324 ft | 0 kts | 146° |
| 2026-05-04 09:27 | 52.45408 | -1.73503 | 326 ft | 2 kts | 146° |
| 2026-05-04 09:27 | 52.45429 | -1.73526 | 323 ft | 2 kts | 146° |
| 2026-05-04 09:28 | 52.45448 | -1.73545 | 324 ft | 4 kts | 156° |
| 2026-05-04 09:28 | 52.45473 | -1.73555 | 323 ft | 4 kts | 184° |
| 2026-05-04 09:28 | 52.45494 | -1.73540 | 325 ft | 3 kts | 234° |
| 2026-05-04 09:28 | 52.45486 | -1.73559 | 322 ft | 3 kts | 236° |
| 2026-05-04 09:29 | 52.45484 | -1.73564 | 323 ft | 0 kts | 236° |
| 2026-05-04 09:32 | 52.45483 | -1.73567 | 323 ft | 1 kts | 236° |
| 2026-05-04 09:34 | 52.45211 | -1.73896 | 326 ft | 11 kts | 146° |
| 2026-05-04 09:34 | 52.45142 | -1.73820 | 325 ft | 13 kts | 145° |
| 2026-05-04 09:34 | 52.45056 | -1.73751 | 325 ft | 15 kts | 164° |
| 2026-05-04 09:34 | 52.44975 | -1.73677 | 326 ft | 13 kts | 145° |
| 2026-05-04 09:35 | 52.44910 | -1.73643 | 326 ft | 8 kts | 194° |
| 2026-05-04 09:35 | 52.44835 | -1.73679 | 324 ft | 16 kts | 197° |
| 2026-05-04 09:35 | 52.44710 | -1.73719 | 325 ft | 16 kts | 164° |
| 2026-05-04 09:35 | 52.44613 | -1.73619 | 324 ft | 17 kts | 146° |
| 2026-05-04 09:37 | 52.44367 | -1.73442 | 325 ft | 0 kts | 231° |
| 2026-05-04 09:38 | 52.44356 | -1.73466 | 326 ft | 6 kts | 232° |
| 2026-05-04 09:38 | 52.44321 | -1.73561 | 326 ft | 11 kts | 256° |
| 2026-05-04 09:38 | 52.44356 | -1.73662 | 326 ft | 11 kts | 326° |
| 2026-05-04 09:38 | 52.44510 | -1.73832 | 329 ft | 61 kts | 326° |
| 2026-05-04 09:39 | 52.45078 | -1.74459 | 332 ft | 133 kts | 327° |
| 2026-05-04 09:39 | 52.46020 | -1.75400 | 484 ft | 174 kts | 329° |
| 2026-05-04 09:39 | 52.47069 | -1.76523 | 1234 ft | 178 kts | 327° |
| 2026-05-04 09:39 | 52.48039 | -1.77662 | 2338 ft | 172 kts | 328° |
| 2026-05-04 09:40 | 52.49078 | -1.78856 | 2822 ft | 192 kts | 331° |
| 2026-05-04 09:40 | 52.50412 | -1.79454 | 3213 ft | 211 kts | 3° |
| 2026-05-04 09:40 | 52.51907 | -1.78874 | 3620 ft | 231 kts | 31° |
| 2026-05-04 09:40 | 52.53008 | -1.77128 | 4755 ft | 221 kts | 57° |
| 2026-05-04 09:41 | 52.53592 | -1.74734 | 5287 ft | 233 kts | 81° |
| 2026-05-04 09:42 | 52.47226 | -1.57932 | 5996 ft | 275 kts | 135° |
| 2026-05-04 09:43 | 52.45801 | -1.55827 | 6492 ft | 275 kts | 147° |
| 2026-05-04 09:43 | 52.44168 | -1.54192 | 7410 ft | 277 kts | 150° |
| 2026-05-04 09:43 | 52.42496 | -1.52551 | 8204 ft | 282 kts | 150° |
| 2026-05-04 09:43 | 52.40805 | -1.50886 | 9081 ft | 285 kts | 150° |
| 2026-05-04 09:44 | 52.39091 | -1.49197 | 9945 ft | 289 kts | 149° |
| 2026-05-04 09:44 | 52.37349 | -1.47482 | 10565 ft | 300 kts | 151° |
| 2026-05-04 09:44 | 52.35418 | -1.46091 | 10882 ft | 316 kts | 169° |
| 2026-05-04 09:46 | 52.18751 | -1.41324 | 15283 ft | 361 kts | 171° |
| 2026-05-04 09:46 | 52.16302 | -1.40633 | 15956 ft | 364 kts | 171° |
| 2026-05-04 09:46 | 52.13791 | -1.39926 | 16621 ft | 367 kts | 171° |
| 2026-05-04 09:47 | 52.11262 | -1.39213 | 17258 ft | 371 kts | 171° |
| 2026-05-04 09:47 | 52.08710 | -1.38496 | 17900 ft | 373 kts | 171° |
| 2026-05-04 09:49 | 51.90337 | -1.33350 | 21504 ft | 392 kts | 173° |
| 2026-05-04 09:49 | 51.87636 | -1.32598 | 22043 ft | 395 kts | 173° |
| 2026-05-04 09:49 | 51.84919 | -1.31841 | 22540 ft | 398 kts | 173° |
| 2026-05-04 09:51 | 51.68298 | -1.27231 | 25411 ft | 408 kts | 173° |
| 2026-05-04 09:51 | 51.65490 | -1.26454 | 25867 ft | 410 kts | 173° |
| 2026-05-04 09:51 | 51.62676 | -1.25678 | 26310 ft | 411 kts | 173° |
| 2026-05-04 09:51 | 51.59851 | -1.24900 | 26740 ft | 413 kts | 173° |
| 2026-05-04 09:52 | 51.57011 | -1.24120 | 27170 ft | 414 kts | 173° |
| 2026-05-04 09:52 | 51.54165 | -1.23340 | 27612 ft | 415 kts | 172° |
| 2026-05-04 09:52 | 51.51312 | -1.22558 | 28045 ft | 417 kts | 173° |
| 2026-05-04 09:52 | 51.48494 | -1.21403 | 28431 ft | 422 kts | 160° |
| 2026-05-04 09:53 | 51.45828 | -1.19404 | 28871 ft | 424 kts | 159° |
| 2026-05-04 09:53 | 51.43126 | -1.17471 | 29188 ft | 427 kts | 159° |
| 2026-05-04 09:53 | 51.40417 | -1.15507 | 29584 ft | 428 kts | 159° |
| 2026-05-04 09:53 | 51.37704 | -1.13525 | 29949 ft | 430 kts | 159° |
| 2026-05-04 09:54 | 51.34980 | -1.11523 | 30272 ft | 432 kts | 158° |
| 2026-05-04 09:54 | 51.32241 | -1.09514 | 30514 ft | 435 kts | 158° |
| 2026-05-04 09:54 | 51.29485 | -1.07497 | 30804 ft | 436 kts | 158° |
| 2026-05-04 09:54 | 51.26723 | -1.05478 | 31137 ft | 437 kts | 158° |
| 2026-05-04 09:55 | 51.23957 | -1.03457 | 31452 ft | 438 kts | 158° |
| 2026-05-04 09:55 | 51.21184 | -1.01437 | 31772 ft | 439 kts | 158° |
| 2026-05-04 09:55 | 51.18403 | -0.99413 | 32077 ft | 440 kts | 158° |
| 2026-05-04 09:55 | 51.15614 | -0.97383 | 32409 ft | 441 kts | 158° |
| 2026-05-04 09:56 | 51.12824 | -0.95356 | 32717 ft | 442 kts | 158° |
| 2026-05-04 09:56 | 51.10030 | -0.93328 | 33048 ft | 441 kts | 158° |
| 2026-05-04 09:56 | 51.07238 | -0.91307 | 33434 ft | 441 kts | 158° |
| 2026-05-04 09:56 | 51.04447 | -0.89289 | 33731 ft | 442 kts | 158° |
| 2026-05-04 09:57 | 51.01650 | -0.87270 | 34039 ft | 442 kts | 158° |
| 2026-05-04 09:57 | 50.98847 | -0.85247 | 34312 ft | 443 kts | 158° |
| 2026-05-04 09:57 | 50.96041 | -0.83225 | 34572 ft | 443 kts | 158° |
| 2026-05-04 09:57 | 50.93231 | -0.81203 | 34825 ft | 444 kts | 158° |
| 2026-05-04 09:58 | 50.90418 | -0.79180 | 35092 ft | 444 kts | 157° |
| 2026-05-04 09:58 | 50.87604 | -0.77161 | 35359 ft | 444 kts | 158° |
| 2026-05-04 09:58 | 50.84844 | -0.74953 | 35642 ft | 445 kts | 149° |
| 2026-05-04 10:00 | 50.66560 | -0.56390 | 37022 ft | 449 kts | 149° |
| 2026-05-04 10:00 | 50.63933 | -0.53737 | 37011 ft | 448 kts | 149° |
| 2026-05-04 10:04 | 50.27295 | -0.17070 | 37012 ft | 445 kts | 150° |
| 2026-05-04 10:04 | 50.22059 | -0.11889 | 37016 ft | 445 kts | 150° |
| 2026-05-04 10:05 | 50.16824 | -0.06715 | 37011 ft | 446 kts | 150° |
| 2026-05-04 10:05 | 50.11578 | -0.01561 | 37012 ft | 445 kts | 152° |
| 2026-05-04 10:05 | 50.08766 | 0.00348 | 36983 ft | 438 kts | 167° |
| 2026-05-04 10:06 | 50.05821 | 0.01547 | 37023 ft | 440 kts | 167° |
| 2026-05-04 10:06 | 49.99907 | 0.03972 | 37019 ft | 439 kts | 167° |
| 2026-05-04 10:08 | 49.80205 | 0.11713 | 37011 ft | 438 kts | 168° |
| 2026-05-04 10:08 | 49.74293 | 0.14017 | 37006 ft | 438 kts | 168° |
| 2026-05-04 10:09 | 49.68391 | 0.16328 | 37015 ft | 437 kts | 167° |
| 2026-05-04 10:09 | 49.62509 | 0.18709 | 37018 ft | 437 kts | 167° |
| 2026-05-04 10:10 | 49.56622 | 0.21073 | 37019 ft | 437 kts | 167° |
| 2026-05-04 10:10 | 49.50736 | 0.23432 | 37015 ft | 437 kts | 167° |
| 2026-05-04 10:11 | 49.44853 | 0.25784 | 37017 ft | 437 kts | 167° |
| 2026-05-04 10:11 | 49.38972 | 0.28130 | 37021 ft | 437 kts | 167° |
| 2026-05-04 10:12 | 49.33132 | 0.30456 | 37019 ft | 437 kts | 167° |
| 2026-05-04 10:12 | 49.27271 | 0.32915 | 37013 ft | 437 kts | 167° |
| 2026-05-04 10:13 | 49.21403 | 0.35384 | 36982 ft | 437 kts | 167° |
| 2026-05-04 10:13 | 49.15540 | 0.37846 | 36984 ft | 437 kts | 167° |
| 2026-05-04 10:14 | 49.09675 | 0.40302 | 36979 ft | 437 kts | 167° |
| 2026-05-04 10:16 | 48.86377 | 0.50587 | 37021 ft | 431 kts | 165° |
| 2026-05-04 10:16 | 48.80513 | 0.52577 | 36960 ft | 435 kts | 168° |
| 2026-05-04 10:17 | 48.74634 | 0.54778 | 36985 ft | 437 kts | 167° |
| 2026-05-04 10:19 | 48.51187 | 0.64013 | 36958 ft | 435 kts | 167° |
| 2026-05-04 10:19 | 48.45342 | 0.66355 | 36968 ft | 435 kts | 167° |
| 2026-05-04 10:20 | 48.39505 | 0.68716 | 36964 ft | 433 kts | 167° |
| 2026-05-04 10:20 | 48.33684 | 0.71068 | 36963 ft | 433 kts | 167° |
| 2026-05-04 10:21 | 48.27859 | 0.73417 | 36960 ft | 433 kts | 167° |
| 2026-05-04 10:21 | 48.22031 | 0.75728 | 36952 ft | 433 kts | 168° |
| 2026-05-04 10:22 | 48.13304 | 0.79164 | 36954 ft | 432 kts | 168° |
| 2026-05-04 10:23 | 48.07490 | 0.81447 | 36956 ft | 432 kts | 168° |
| 2026-05-04 10:25 | 47.84306 | 0.90498 | 36981 ft | 431 kts | 168° |
| 2026-05-04 10:25 | 47.78510 | 0.92746 | 36945 ft | 430 kts | 168° |
| 2026-05-04 10:26 | 47.72721 | 0.94986 | 36945 ft | 430 kts | 168° |
| 2026-05-04 10:26 | 47.66933 | 0.97220 | 36954 ft | 430 kts | 168° |
| 2026-05-04 10:27 | 47.61143 | 0.99451 | 36955 ft | 430 kts | 168° |
| 2026-05-04 10:27 | 47.55357 | 1.01675 | 36955 ft | 429 kts | 168° |
| 2026-05-04 10:28 | 47.49576 | 1.03891 | 36954 ft | 429 kts | 168° |
| 2026-05-04 10:28 | 47.43789 | 1.06070 | 36948 ft | 428 kts | 172° |
| 2026-05-04 10:28 | 47.40848 | 1.06351 | 36973 ft | 421 kts | 183° |
| 2026-05-04 10:29 | 47.37903 | 1.06294 | 36935 ft | 425 kts | 182° |
| 2026-05-04 10:29 | 47.32006 | 1.06191 | 36964 ft | 424 kts | 182° |
| 2026-05-04 10:30 | 47.26110 | 1.06054 | 36954 ft | 424 kts | 182° |
| 2026-05-04 10:30 | 47.20214 | 1.05915 | 36958 ft | 424 kts | 182° |
| 2026-05-04 10:31 | 47.14321 | 1.05779 | 36954 ft | 424 kts | 182° |
| 2026-05-04 10:32 | 46.93679 | 1.05099 | 36951 ft | 424 kts | 183° |
| 2026-05-04 10:33 | 46.87772 | 1.04850 | 36961 ft | 425 kts | 183° |
| 2026-05-04 10:33 | 46.81862 | 1.04603 | 36943 ft | 425 kts | 183° |
| 2026-05-04 10:34 | 46.75959 | 1.04355 | 36956 ft | 425 kts | 183° |
| 2026-05-04 10:34 | 46.70053 | 1.04107 | 36947 ft | 424 kts | 183° |
| 2026-05-04 10:35 | 46.64183 | 1.03863 | 36950 ft | 425 kts | 183° |
| 2026-05-04 10:35 | 46.58273 | 1.03616 | 36950 ft | 425 kts | 183° |
| 2026-05-04 10:36 | 46.52329 | 1.03430 | 36946 ft | 425 kts | 177° |
| 2026-05-04 10:36 | 46.46520 | 1.05191 | 36940 ft | 427 kts | 171° |
| 2026-05-04 10:37 | 46.40729 | 1.07011 | 36946 ft | 429 kts | 170° |
| 2026-05-04 10:37 | 46.34913 | 1.08925 | 36944 ft | 429 kts | 170° |
| 2026-05-04 10:39 | 46.14544 | 1.15689 | 36947 ft | 429 kts | 170° |
| 2026-05-04 10:40 | 46.08723 | 1.17613 | 36958 ft | 429 kts | 170° |
| 2026-05-04 10:40 | 46.02902 | 1.19532 | 36944 ft | 429 kts | 170° |
| 2026-05-04 10:41 | 45.97096 | 1.21444 | 36963 ft | 428 kts | 170° |
| 2026-05-04 10:41 | 45.91285 | 1.23352 | 36961 ft | 428 kts | 171° |
| 2026-05-04 10:42 | 45.85475 | 1.25255 | 36965 ft | 428 kts | 170° |
| 2026-05-04 10:42 | 45.79669 | 1.27154 | 36968 ft | 428 kts | 170° |
| 2026-05-04 10:43 | 45.73856 | 1.29053 | 36959 ft | 428 kts | 171° |
| 2026-05-04 10:45 | 45.50635 | 1.36591 | 36946 ft | 427 kts | 171° |
| 2026-05-04 10:45 | 45.44836 | 1.38463 | 36948 ft | 427 kts | 171° |
| 2026-05-04 10:46 | 45.39043 | 1.40330 | 36955 ft | 427 kts | 171° |
| 2026-05-04 10:46 | 45.33252 | 1.42192 | 36956 ft | 427 kts | 171° |
| 2026-05-04 10:47 | 45.27499 | 1.44036 | 36961 ft | 427 kts | 171° |
| 2026-05-04 10:47 | 45.21675 | 1.45922 | 36972 ft | 426 kts | 170° |
| 2026-05-04 10:49 | 44.98582 | 1.53257 | 36931 ft | 425 kts | 171° |
| 2026-05-04 10:50 | 44.92809 | 1.55085 | 36951 ft | 425 kts | 171° |
| 2026-05-04 10:52 | 44.69727 | 1.62364 | 36958 ft | 425 kts | 171° |
| 2026-05-04 10:52 | 44.63953 | 1.64175 | 36962 ft | 425 kts | 172° |
| 2026-05-04 10:54 | 44.40842 | 1.71384 | 36948 ft | 426 kts | 172° |
| 2026-05-04 10:56 | 44.18628 | 1.77224 | 36958 ft | 423 kts | 175° |
| 2026-05-04 10:57 | 44.11866 | 1.78743 | 36961 ft | 424 kts | 175° |
| 2026-05-04 10:57 | 44.06989 | 1.79837 | 36967 ft | 424 kts | 175° |
| 2026-05-04 10:58 | 44.01168 | 1.81140 | 36938 ft | 424 kts | 175° |
| 2026-05-04 10:58 | 43.95335 | 1.82393 | 36953 ft | 422 kts | 180° |
| 2026-05-04 10:59 | 43.89485 | 1.82867 | 36955 ft | 422 kts | 180° |
| 2026-05-04 10:59 | 43.83639 | 1.83421 | 36967 ft | 421 kts | 180° |
| 2026-05-04 11:00 | 43.77789 | 1.84006 | 36962 ft | 421 kts | 180° |
| 2026-05-04 11:02 | 43.54458 | 1.86334 | 36984 ft | 421 kts | 180° |
| 2026-05-04 11:05 | 43.10740 | 1.90572 | 36958 ft | 419 kts | 181° |
| 2026-05-04 11:06 | 43.04927 | 1.91125 | 36936 ft | 418 kts | 181° |
| 2026-05-04 11:06 | 42.99157 | 1.91672 | 36928 ft | 418 kts | 182° |
| 2026-05-04 11:08 | 42.79169 | 1.93558 | 32256 ft | 415 kts | 182° |
| 2026-05-04 11:10 | 42.58821 | 1.96498 | 27660 ft | 422 kts | 177° |
| 2026-05-04 11:12 | 42.39171 | 2.00359 | 23725 ft | 398 kts | 176° |
| 2026-05-04 11:12 | 42.36439 | 2.00840 | 23089 ft | 394 kts | 179° |
| 2026-05-04 11:12 | 42.33714 | 2.01157 | 22452 ft | 392 kts | 179° |
| 2026-05-04 11:12 | 42.31016 | 2.01486 | 21955 ft | 387 kts | 179° |
| 2026-05-04 11:13 | 42.28353 | 2.01818 | 21503 ft | 382 kts | 179° |
| 2026-05-04 11:13 | 42.25718 | 2.02152 | 20971 ft | 379 kts | 178° |
| 2026-05-04 11:13 | 42.23101 | 2.02483 | 20454 ft | 377 kts | 178° |
| 2026-05-04 11:13 | 42.20501 | 2.02773 | 19944 ft | 372 kts | 183° |
| 2026-05-04 11:14 | 42.18020 | 2.02276 | 19556 ft | 365 kts | 200° |
| 2026-05-04 11:14 | 42.15764 | 2.00749 | 19182 ft | 364 kts | 216° |
| 2026-05-04 11:14 | 42.13796 | 1.98606 | 18816 ft | 364 kts | 220° |
| 2026-05-04 11:16 | 42.00933 | 1.82700 | 16123 ft | 352 kts | 223° |
| 2026-05-04 11:16 | 41.99149 | 1.80454 | 15762 ft | 351 kts | 223° |
| 2026-05-04 11:16 | 41.97375 | 1.78220 | 15384 ft | 349 kts | 223° |
| 2026-05-04 11:17 | 41.95546 | 1.76097 | 14955 ft | 347 kts | 215° |
| 2026-05-04 11:17 | 41.93566 | 1.74283 | 14583 ft | 343 kts | 215° |
| 2026-05-04 11:19 | 41.80501 | 1.61787 | 12138 ft | 314 kts | 216° |
| 2026-05-04 11:19 | 41.78739 | 1.60094 | 11830 ft | 308 kts | 216° |
| 2026-05-04 11:19 | 41.77009 | 1.58434 | 11510 ft | 304 kts | 216° |
| 2026-05-04 11:19 | 41.75299 | 1.56792 | 11167 ft | 301 kts | 216° |
| 2026-05-04 11:20 | 41.73570 | 1.55253 | 10862 ft | 297 kts | 206° |
| 2026-05-04 11:20 | 41.71596 | 1.54540 | 10600 ft | 293 kts | 192° |
| 2026-05-04 11:20 | 41.69620 | 1.54023 | 10383 ft | 286 kts | 193° |
| 2026-05-04 11:20 | 41.67684 | 1.53513 | 10149 ft | 281 kts | 193° |
| 2026-05-04 11:22 | 41.54939 | 1.50316 | 8487 ft | 258 kts | 182° |
| 2026-05-04 11:22 | 41.53173 | 1.50592 | 8241 ft | 260 kts | 173° |
| 2026-05-04 11:23 | 41.51387 | 1.50971 | 8018 ft | 260 kts | 173° |
| 2026-05-04 11:23 | 41.49599 | 1.51355 | 7793 ft | 260 kts | 173° |
| 2026-05-04 11:24 | 41.38985 | 1.53716 | 6464 ft | 253 kts | 172° |
| 2026-05-04 11:25 | 41.37264 | 1.54101 | 6242 ft | 249 kts | 172° |
| 2026-05-04 11:25 | 41.35573 | 1.54478 | 6037 ft | 243 kts | 174° |
| 2026-05-04 11:25 | 41.33939 | 1.54387 | 5801 ft | 233 kts | 201° |
| 2026-05-04 11:26 | 41.31085 | 1.52595 | 5532 ft | 218 kts | 206° |
| 2026-05-04 11:27 | 41.22335 | 1.46022 | 4446 ft | 202 kts | 245° |
| 2026-05-04 11:28 | 41.22073 | 1.44238 | 4217 ft | 195 kts | 265° |
| 2026-05-04 11:28 | 41.21933 | 1.42483 | 3964 ft | 189 kts | 257° |
| 2026-05-04 11:28 | 41.21628 | 1.40854 | 3764 ft | 176 kts | 252° |
| 2026-05-04 11:28 | 41.21259 | 1.39341 | 3515 ft | 168 kts | 250° |
| 2026-05-04 11:29 | 41.20873 | 1.37908 | 3305 ft | 163 kts | 249° |
| 2026-05-04 11:29 | 41.20478 | 1.36502 | 3105 ft | 162 kts | 248° |
| 2026-05-04 11:29 | 41.20077 | 1.35099 | 2857 ft | 162 kts | 248° |
| 2026-05-04 11:29 | 41.19675 | 1.33705 | 2678 ft | 161 kts | 248° |
| 2026-05-04 11:31 | 41.16924 | 1.24273 | 1193 ft | 142 kts | 242° |
| 2026-05-04 11:33 | 41.14593 | 1.16232 | 245 ft | 79 kts | 249° |
| 2026-05-04 11:33 | 41.14459 | 1.15763 | 245 ft | 29 kts | 250° |
| 2026-05-04 11:33 | 41.14458 | 1.15619 | 245 ft | 8 kts | 312° |
| 2026-05-04 11:34 | 41.14504 | 1.15584 | 244 ft | 5 kts | 336° |
| 2026-05-04 11:34 | 41.14544 | 1.15565 | 244 ft | 7 kts | 353° |
| 2026-05-04 11:34 | 41.14595 | 1.15588 | 244 ft | 8 kts | 17° |
| 2026-05-04 11:34 | 41.14634 | 1.15575 | 244 ft | 7 kts | 339° |
| 2026-05-04 11:35 | 41.14662 | 1.15562 | 244 ft | 0 kts | 339° |